Time;durP1;ratioP1;P1;durP2;ratioP2;P2;SDS_P1;SDS_P2;PMS_P1;PMS_P2;Temp;Humidity;BMP_temperature;BMP_pressure;BME280_temperature;BME280_humidity;BME280_pressure;Samples;Min_cycle;Max_cycle;Signal;HPM_P1;HPM_P2
2022/07/10 00:00:14;;;;;;;6.60;2.75;;;13.20;1.00;;;;;;4950634;28;20054;-89
2022/07/10 00:02:42;;;;;;;7.18;1.70;;;13.10;1.00;;;;;;4950642;28;20047;-89
2022/07/10 00:05:09;;;;;;;7.20;1.77;;;13.00;1.00;;;;;;4966424;28;20506;-89
2022/07/10 00:07:35;;;;;;;7.68;1.88;;;13.00;1.00;;;;;;4951373;28;20691;-89
2022/07/10 00:10:02;;;;;;;6.57;1.95;;;13.00;1.00;;;;;;4950212;28;20038;-90
2022/07/10 00:12:28;;;;;;;9.82;1.90;;;12.90;1.00;;;;;;4968177;28;20414;-90
2022/07/10 00:14:54;;;;;;;7.82;2.00;;;12.90;1.00;;;;;;4967013;28;20276;-89
2022/07/10 00:17:19;;;;;;;8.05;1.75;;;12.90;1.00;;;;;;4946968;28;20118;-89
2022/07/10 00:19:45;;;;;;;9.07;1.90;;;12.90;1.00;;;;;;4947292;28;20034;-90
2022/07/10 00:22:14;;;;;;;7.20;1.88;;;12.90;1.00;;;;;;4963647;28;20058;-90
2022/07/10 00:24:40;;;;;;;8.23;1.60;;;12.90;1.00;;;;;;4948328;28;20049;-90
2022/07/10 00:27:05;;;;;;;10.63;1.77;;;12.90;1.00;;;;;;4961111;28;20240;-89
2022/07/10 00:29:31;;;;;;;8.73;1.90;;;13.00;1.00;;;;;;4938221;28;20085;-88
2022/07/10 00:31:57;;;;;;;6.70;2.15;;;12.90;1.00;;;;;;4945328;28;20049;-90
2022/07/10 00:34:23;;;;;;;6.63;2.05;;;12.90;1.00;;;;;;4948473;28;20038;-89
2022/07/10 00:36:51;;;;;;;7.22;1.63;;;12.90;1.00;;;;;;4946547;28;20114;-90
2022/07/10 00:39:17;;;;;;;8.90;1.75;;;12.90;1.00;;;;;;4977679;28;20665;-89
2022/07/10 00:41:42;;;;;;;8.13;1.70;;;12.80;1.00;;;;;;4946226;28;20035;-89
2022/07/10 00:44:08;;;;;;;7.72;1.77;;;12.80;1.00;;;;;;4963633;28;20905;-89
2022/07/10 00:46:35;;;;;;;7.75;1.80;;;12.80;1.00;;;;;;4946562;28;20122;-90
2022/07/10 00:49:00;;;;;;;7.68;1.70;;;12.70;1.00;;;;;;4946190;28;20035;-89
2022/07/10 00:51:29;;;;;;;7.85;2.28;;;12.80;1.00;;;;;;4948874;28;20053;-90
2022/07/10 00:53:56;;;;;;;7.50;1.60;;;12.80;1.00;;;;;;4960055;28;20558;-90
2022/07/10 00:56:27;;;;;;;4.95;1.77;;;12.80;1.00;;;;;;4962709;28;20305;-89
2022/07/10 00:58:53;;;;;;;6.07;1.92;;;12.90;1.00;;;;;;4948306;28;20101;-90
2022/07/10 01:01:19;;;;;;;5.88;1.50;;;12.90;1.00;;;;;;4946411;28;20074;-90
2022/07/10 01:03:46;;;;;;;8.43;1.70;;;13.00;1.00;;;;;;4947878;28;20035;-89
2022/07/10 01:06:13;;;;;;;8.55;1.90;;;13.10;1.00;;;;;;4946685;28;20038;-89
2022/07/10 01:08:39;;;;;;;6.38;1.63;;;13.10;20.20;;;;;;4947526;28;20118;-89
2022/07/10 01:11:05;;;;;;;8.55;2.03;;;13.10;17.60;;;;;;4964154;28;20073;-89
2022/07/10 01:13:31;;;;;;;6.60;2.20;;;13.10;40.20;;;;;;4947672;28;20314;-90
2022/07/10 01:15:57;;;;;;;5.57;1.98;;;13.00;78.50;;;;;;4960118;28;20035;-89
2022/07/10 01:18:25;;;;;;;8.35;2.10;;;12.90;74.80;;;;;;4944363;28;20043;-89
2022/07/10 01:20:55;;;;;;;8.18;2.08;;;12.90;99.90;;;;;;4946962;28;20049;-89
2022/07/10 01:23:21;;;;;;;10.85;2.10;;;12.90;99.90;;;;;;4945791;28;20545;-89
2022/07/10 01:25:48;;;;;;;9.35;2.28;;;13.00;99.90;;;;;;4963907;28;20049;-89
2022/07/10 01:28:15;;;;;;;7.25;1.92;;;13.00;99.90;;;;;;4946820;28;20060;-89
2022/07/10 01:30:44;;;;;;;8.32;2.05;;;13.00;99.90;;;;;;4964017;28;20039;-90
2022/07/10 01:33:10;;;;;;;9.73;2.28;;;12.90;99.90;;;;;;4963982;28;20047;-90
2022/07/10 01:35:36;;;;;;;9.02;2.03;;;12.80;99.90;;;;;;4947042;28;20054;-90
2022/07/10 01:38:01;;;;;;;8.40;2.13;;;12.90;99.90;;;;;;4964415;28;20066;-89
2022/07/10 01:40:27;;;;;;;7.82;2.22;;;12.80;99.90;;;;;;4948699;28;20431;-89
2022/07/10 01:42:53;;;;;;;9.00;2.08;;;12.80;99.90;;;;;;4949504;28;20031;-89
2022/07/10 01:45:18;;;;;;;7.05;2.20;;;12.80;99.90;;;;;;4947732;28;20049;-89
2022/07/10 01:47:47;;;;;;;6.05;2.13;;;12.90;99.90;;;;;;4947993;28;20430;-88
2022/07/10 01:50:12;;;;;;;12.50;2.10;;;12.80;99.90;;;;;;4947406;28;20494;-89
2022/07/10 01:52:41;;;;;;;7.75;1.63;;;12.80;99.90;;;;;;4946881;28;20054;-88
2022/07/10 01:55:07;;;;;;;10.98;2.60;;;12.80;99.90;;;;;;4943791;28;20452;-89
2022/07/10 01:57:33;;;;;;;8.52;1.90;;;12.80;99.90;;;;;;4946138;28;20110;-89
2022/07/10 01:59:59;;;;;;;5.50;1.80;;;12.80;99.90;;;;;;4946783;28;20483;-88
2022/07/10 02:02:25;;;;;;;8.23;2.05;;;12.80;74.80;;;;;;4953614;28;20051;-89
2022/07/10 02:04:51;;;;;;;6.82;1.58;;;12.70;30.90;;;;;;4947027;28;20435;-88
2022/07/10 02:07:18;;;;;;;8.43;1.70;;;12.80;1.00;;;;;;4946673;28;20045;-88
2022/07/10 02:09:45;;;;;;;10.07;1.70;;;12.70;1.00;;;;;;4943104;28;20046;-88
2022/07/10 02:12:13;;;;;;;22.67;2.13;;;12.70;1.00;;;;;;4968922;28;20430;-88
2022/07/10 02:14:39;;;;;;;8.13;1.67;;;12.70;1.00;;;;;;4958636;28;20395;-89
2022/07/10 02:17:06;;;;;;;6.10;1.77;;;12.70;1.00;;;;;;4944462;28;20031;-88
2022/07/10 02:19:32;;;;;;;9.65;1.90;;;12.70;1.00;;;;;;4943636;28;20407;-89
2022/07/10 02:21:58;;;;;;;6.43;1.67;;;12.60;1.00;;;;;;4944125;28;20153;-88
2022/07/10 02:24:24;;;;;;;6.78;1.50;;;12.60;1.00;;;;;;4945733;28;20122;-89
2022/07/10 02:26:50;;;;;;;5.03;1.75;;;12.50;1.00;;;;;;4960591;28;20445;-90
2022/07/10 02:29:16;;;;;;;5.05;1.52;;;12.60;1.00;;;;;;4944698;28;20134;-89
2022/07/10 02:31:41;;;;;;;7.38;1.80;;;12.50;1.00;;;;;;4946388;28;20034;-89
2022/07/10 02:34:11;;;;;;;8.38;1.88;;;12.60;1.00;;;;;;4942933;28;20462;-90
2022/07/10 02:36:38;;;;;;;7.03;1.40;;;12.60;1.00;;;;;;4942422;28;20051;-88
2022/07/10 02:39:08;;;;;;;8.10;1.65;;;12.50;1.00;;;;;;4961382;28;20035;-88
2022/07/10 02:41:35;;;;;;;9.90;1.73;;;12.50;1.00;;;;;;4945221;28;20094;-89
2022/07/10 02:44:02;;;;;;;7.18;1.52;;;12.50;1.00;;;;;;4971976;28;20129;-90
2022/07/10 02:46:28;;;;;;;4.93;1.65;;;12.40;1.00;;;;;;4946435;28;20385;-89
2022/07/10 02:48:54;;;;;;;7.38;1.85;;;12.40;1.00;;;;;;4945764;28;20046;-90
2022/07/10 02:51:19;;;;;;;5.88;1.35;;;12.40;1.00;;;;;;4942773;28;20480;-88
2022/07/10 02:53:45;;;;;;;7.40;1.77;;;12.30;1.00;;;;;;4961128;28;20081;-89
2022/07/10 02:56:11;;;;;;;6.35;1.52;;;12.30;1.00;;;;;;4944955;28;20038;-89
2022/07/10 02:58:38;;;;;;;5.50;1.67;;;12.30;1.00;;;;;;4961146;28;20034;-89
2022/07/10 03:01:04;;;;;;;8.07;1.80;;;12.30;1.00;;;;;;4943298;28;20055;-89
2022/07/10 03:03:29;;;;;;;7.63;1.52;;;12.30;1.00;;;;;;4955267;28;20049;-88
2022/07/10 03:05:55;;;;;;;10.32;2.10;;;12.30;1.00;;;;;;4943912;28;20042;-88
2022/07/10 03:08:21;;;;;;;3.58;1.17;;;12.30;1.00;;;;;;4956856;28;20054;-89
2022/07/10 03:10:46;;;;;;;6.28;1.58;;;12.30;1.00;;;;;;4943316;28;20536;-88
2022/07/10 03:13:12;;;;;;;10.05;1.70;;;12.30;1.00;;;;;;4954354;28;20411;-89
2022/07/10 03:15:38;;;;;;;6.63;1.63;;;12.30;1.00;;;;;;4942090;28;20426;-88
2022/07/10 03:18:03;;;;;;;8.02;1.85;;;12.40;1.00;;;;;;4943063;28;20035;-88
2022/07/10 03:20:29;;;;;;;6.90;1.60;;;12.40;1.00;;;;;;4943627;28;20043;-89
2022/07/10 03:22:55;;;;;;;8.93;1.88;;;12.40;1.00;;;;;;4945657;28;20141;-89
2022/07/10 03:25:23;;;;;;;7.80;1.80;;;12.50;1.00;;;;;;4943759;28;20039;-89
2022/07/10 03:27:49;;;;;;;6.32;1.63;;;12.50;1.00;;;;;;4944395;28;20261;-89
2022/07/10 03:30:15;;;;;;;6.88;1.90;;;12.50;1.00;;;;;;4951830;28;20042;-89
2022/07/10 03:32:41;;;;;;;6.65;1.88;;;12.50;1.00;;;;;;4944166;28;20043;-90
2022/07/10 03:35:07;;;;;;;6.18;1.85;;;12.50;1.00;;;;;;4944173;28;20056;-88
2022/07/10 03:37:32;;;;;;;7.00;1.60;;;12.50;1.00;;;;;;4945204;28;20031;-89
2022/07/10 03:39:58;;;;;;;8.88;1.80;;;12.50;1.00;;;;;;4943328;28;20045;-89
2022/07/10 03:42:24;;;;;;;9.75;2.22;;;12.60;1.00;;;;;;4943651;28;20241;-89
2022/07/10 03:44:49;;;;;;;6.95;1.70;;;12.60;1.00;;;;;;4941103;28;20038;-89
2022/07/10 03:47:15;;;;;;;8.20;1.98;;;12.60;1.00;;;;;;4942680;28;20038;-89
2022/07/10 03:49:41;;;;;;;4.72;1.50;;;12.60;23.90;;;;;;4942650;28;20226;-89
2022/07/10 03:52:07;;;;;;;9.40;1.65;;;12.60;1.00;;;;;;4941722;28;20047;-89
2022/07/10 03:54:33;;;;;;;7.85;1.75;;;12.60;1.00;;;;;;4962579;28;20043;-89
2022/07/10 03:59:43;;;;;;;7.03;1.50;;;12.70;11.50;;;;;;4955214;28;20039;-89
2022/07/10 04:02:11;;;;;;;4.65;1.58;;;12.70;7.70;;;;;;4946193;28;20066;-89
2022/07/10 04:04:37;;;;;;;10.60;2.20;;;12.80;1.00;;;;;;4961624;28;20050;-89
2022/07/10 04:07:04;;;;;;;9.25;2.08;;;12.90;5.20;;;;;;4952859;28;20074;-89
2022/07/10 04:09:30;;;;;;;13.38;2.10;;;12.90;4.00;;;;;;4947475;28;20430;-88
2022/07/10 04:11:56;;;;;;;7.35;1.77;;;13.00;1.00;;;;;;4944838;28;20057;-88
2022/07/10 04:14:22;;;;;;;9.63;1.77;;;13.10;1.00;;;;;;4962411;28;20498;-88
2022/07/10 04:16:47;;;;;;;8.23;2.15;;;13.10;31.60;;;;;;4962778;28;20046;-88
2022/07/10 04:19:13;;;;;;;9.30;1.90;;;13.10;19.70;;;;;;4956062;28;20034;-88
2022/07/10 04:21:39;;;;;;;11.60;1.90;;;13.20;3.10;;;;;;4957299;28;20041;-89
2022/07/10 04:24:05;;;;;;;8.77;1.45;;;13.20;9.10;;;;;;4963458;28;20110;-88
2022/07/10 04:26:30;;;;;;;8.43;1.67;;;13.30;12.00;;;;;;4947477;28;20186;-89
2022/07/10 04:28:56;;;;;;;7.63;1.70;;;13.40;57.80;;;;;;4959639;28;20173;-88
2022/07/10 04:31:21;;;;;;;7.30;1.65;;;13.50;46.60;;;;;;4945743;28;20059;-88
2022/07/10 04:33:48;;;;;;;8.75;2.47;;;13.60;67.60;;;;;;4943709;28;20122;-88
2022/07/10 04:36:13;;;;;;;9.98;2.30;;;13.70;98.60;;;;;;4942710;28;20043;-88
2022/07/10 04:38:39;;;;;;;7.25;2.10;;;13.80;92.90;;;;;;4962489;28;20054;-88
2022/07/10 04:41:08;;;;;;;9.02;2.30;;;13.90;99.90;;;;;;4961696;28;20174;-87
2022/07/10 04:43:34;;;;;;;8.27;2.10;;;14.10;99.90;;;;;;4945325;28;20039;-87
2022/07/10 04:46:00;;;;;;;9.00;2.25;;;14.20;99.90;;;;;;4944449;28;20522;-88
2022/07/10 04:48:25;;;;;;;8.20;2.20;;;14.30;99.90;;;;;;4945763;28;20122;-89
2022/07/10 04:50:51;;;;;;;12.98;2.25;;;14.30;99.90;;;;;;4942218;28;20039;-88
2022/07/10 04:53:16;;;;;;;9.63;2.30;;;14.40;99.90;;;;;;4945843;28;20430;-88
2022/07/10 04:55:42;;;;;;;8.20;2.10;;;14.50;99.20;;;;;;4945606;28;20039;-88
2022/07/10 04:58:08;;;;;;;8.82;2.45;;;14.60;83.00;;;;;;4943556;28;20073;-88
2022/07/10 05:00:33;;;;;;;9.60;2.20;;;14.60;99.90;;;;;;4944414;28;20540;-87
2022/07/10 05:02:59;;;;;;;7.15;2.10;;;14.60;93.00;;;;;;4959328;28;20113;-88
2022/07/10 05:05:25;;;;;;;11.93;2.40;;;14.70;67.70;;;;;;4961470;28;20050;-87
2022/07/10 05:07:50;;;;;;;10.15;2.17;;;14.70;1.20;;;;;;4955620;28;20125;-88
2022/07/10 05:10:16;;;;;;;12.23;2.45;;;14.80;1.00;;;;;;4956202;28;20035;-88
2022/07/10 05:12:42;;;;;;;6.10;1.70;;;14.90;1.00;;;;;;4958676;28;20050;-89
2022/07/10 05:15:08;;;;;;;11.35;2.10;;;15.00;1.00;;;;;;4939062;28;20121;-87
2022/07/10 05:17:34;;;;;;;7.90;2.22;;;15.00;1.00;;;;;;4944688;28;20479;-88
2022/07/10 05:19:59;;;;;;;10.60;2.15;;;15.10;99.90;;;;;;4944467;28;20038;-87
2022/07/10 05:22:26;;;;;;;10.82;1.98;;;15.00;1.00;;;;;;4939201;28;20210;-87
2022/07/10 05:24:51;;;;;;;16.27;2.47;;;15.10;1.00;;;;;;4942816;28;20189;-86
2022/07/10 05:27:19;;;;;;;13.00;2.30;;;15.00;1.00;;;;;;4974911;28;20133;-87
2022/07/10 05:29:45;;;;;;;10.77;2.22;;;15.00;99.90;;;;;;4941610;28;20221;-88
2022/07/10 05:32:11;;;;;;;10.82;2.10;;;15.00;99.90;;;;;;4944909;28;20074;-88
2022/07/10 05:34:37;;;;;;;11.63;2.08;;;15.00;99.90;;;;;;4944103;28;20122;-88
2022/07/10 05:37:03;;;;;;;11.38;2.00;;;15.00;1.00;;;;;;4943801;28;20120;-86
2022/07/10 05:39:29;;;;;;;8.82;1.90;;;15.00;1.00;;;;;;4942733;28;20113;-87
2022/07/10 05:41:55;;;;;;;9.90;1.80;;;15.00;99.90;;;;;;4957413;28;20053;-87
2022/07/10 05:44:21;;;;;;;10.40;1.67;;;15.00;1.00;;;;;;4939788;28;20499;-88
2022/07/10 05:46:47;;;;;;;7.82;1.95;;;15.10;1.00;;;;;;4943058;28;20039;-88
2022/07/10 05:49:12;;;;;;;11.02;1.80;;;15.20;1.00;;;;;;4974842;28;20590;-87
2022/07/10 05:51:38;;;;;;;12.13;2.13;;;15.20;1.00;;;;;;4940962;28;20050;-87
2022/07/10 05:54:04;;;;;;;7.70;2.08;;;15.10;99.90;;;;;;4946326;28;20267;-88
2022/07/10 05:56:29;;;;;;;7.57;2.17;;;15.20;1.00;;;;;;4961324;28;20198;-88
2022/07/10 05:58:56;;;;;;;7.07;2.03;;;15.20;1.00;;;;;;4956661;28;20053;-88
2022/07/10 06:01:22;;;;;;;10.23;2.00;;;15.20;1.00;;;;;;4957931;28;20133;-88
2022/07/10 06:03:48;;;;;;;8.25;2.17;;;15.30;1.00;;;;;;4954102;28;20043;-87
2022/07/10 06:06:15;;;;;;;10.70;2.22;;;15.30;1.00;;;;;;4943786;28;20344;-88
2022/07/10 06:08:41;;;;;;;10.52;2.10;;;15.30;1.00;;;;;;4943418;28;20096;-88
2022/07/10 06:11:07;;;;;;;7.25;2.00;;;15.30;1.00;;;;;;4957876;28;20035;-87
2022/07/10 06:13:32;;;;;;;9.55;2.10;;;15.20;1.00;;;;;;4951379;28;20054;-88
2022/07/10 06:15:58;;;;;;;7.65;2.03;;;15.30;17.10;;;;;;4946368;28;20137;-88
2022/07/10 06:18:24;;;;;;;8.65;2.15;;;15.30;25.10;;;;;;4961423;28;20122;-87
2022/07/10 06:20:49;;;;;;;8.32;2.40;;;15.20;1.00;;;;;;4941959;28;20525;-87
2022/07/10 06:23:15;;;;;;;5.78;1.75;;;15.20;24.20;;;;;;4959949;28;20555;-88
2022/07/10 06:25:41;;;;;;;8.38;2.10;;;15.10;70.10;;;;;;4942913;28;20039;-87
2022/07/10 06:28:06;;;;;;;10.43;2.35;;;15.20;65.20;;;;;;4944166;28;20046;-88
2022/07/10 06:30:32;;;;;;;8.05;1.92;;;15.20;37.20;;;;;;4942660;28;20039;-87
2022/07/10 06:32:58;;;;;;;11.85;2.25;;;15.30;12.20;;;;;;4938468;28;20543;-87
2022/07/10 06:35:23;;;;;;;5.50;1.70;;;15.40;14.20;;;;;;4954559;28;20042;-87
2022/07/10 06:37:49;;;;;;;7.85;2.10;;;15.60;1.00;;;;;;4944285;28;20101;-87
2022/07/10 06:40:15;;;;;;;10.13;2.30;;;15.70;20.50;;;;;;4942664;28;20109;-87
2022/07/10 06:42:41;;;;;;;10.80;2.47;;;15.80;1.00;;;;;;4943613;28;20097;-87
2022/07/10 06:45:07;;;;;;;10.00;2.33;;;15.70;5.10;;;;;;4942353;28;20069;-87
2022/07/10 06:50:18;;;;;;;11.75;2.50;;;15.80;30.90;;;;;;4958390;28;20222;-87
2022/07/10 06:52:44;;;;;;;8.48;2.20;;;15.90;41.00;;;;;;4943652;28;20557;-87
2022/07/10 06:55:09;;;;;;;12.40;2.00;;;15.90;99.90;;;;;;4942384;28;20039;-88
2022/07/10 06:57:38;;;;;;;7.40;1.80;;;15.90;58.40;;;;;;4942783;28;20039;-86
2022/07/10 07:00:05;;;;;;;7.72;1.70;;;15.80;82.60;;;;;;4955149;28;20047;-88
2022/07/10 07:02:30;;;;;;;5.47;1.67;;;15.80;81.70;;;;;;4939760;28;20046;-87
2022/07/10 07:04:56;;;;;;;5.05;1.65;;;15.80;43.40;;;;;;4944170;28;20405;-86
2022/07/10 07:07:22;;;;;;;5.03;1.50;;;15.70;16.90;;;;;;4938337;28;20038;-87
2022/07/10 07:09:50;;;;;;;6.25;1.55;;;15.80;1.00;;;;;;4939879;28;20036;-87
2022/07/10 07:12:17;;;;;;;8.05;1.48;;;15.80;1.00;;;;;;4953737;28;20450;-87
2022/07/10 07:14:43;;;;;;;7.50;1.65;;;15.90;1.00;;;;;;4933174;29;20046;-87
2022/07/10 07:17:11;;;;;;;5.45;1.45;;;16.00;1.00;;;;;;4968030;28;20515;-87
2022/07/10 07:25:09;;;;;;;6.55;1.63;;;15.90;1.00;;;;;;4950581;28;20564;-85
2022/07/10 07:27:37;;;;;;;5.28;1.67;;;15.60;99.90;;;;;;4959802;28;20042;-85
2022/07/10 07:30:14;;;;;;;7.20;1.70;;;15.20;1.00;;;;;;4957452;28;20818;-85
2022/07/10 07:32:41;;;;;;;3.90;1.50;;;15.20;1.00;;;;;;4958200;28;20145;-85
2022/07/10 07:35:08;;;;;;;7.00;1.75;;;15.30;1.00;;;;;;4946267;28;20047;-85
2022/07/10 07:37:37;;;;;;;5.22;2.17;;;15.30;17.00;;;;;;4945677;28;20106;-85
2022/07/10 07:40:04;;;;;;;4.70;1.67;;;15.30;1.00;;;;;;4943128;28;20043;-86
2022/07/10 07:42:30;;;;;;;6.00;1.63;;;15.30;96.60;;;;;;4946420;28;20061;-85
2022/07/10 07:44:56;;;;;;;5.88;1.55;;;15.20;95.80;;;;;;4942641;28;20046;-86
2022/07/10 07:47:22;;;;;;;4.57;1.40;;;15.10;99.90;;;;;;4945581;28;20085;-86
2022/07/10 07:49:47;;;;;;;4.60;1.52;;;15.10;99.90;;;;;;4944292;28;20039;-86
2022/07/10 07:52:14;;;;;;;6.13;1.27;;;15.30;99.90;;;;;;4946048;28;20410;-87
2022/07/10 07:54:40;;;;;;;8.05;1.63;;;15.30;99.90;;;;;;4963466;28;20442;-87
2022/07/10 07:57:06;;;;;;;7.18;1.80;;;15.30;99.90;;;;;;4946074;28;20035;-87
2022/07/10 07:59:32;;;;;;;6.95;1.50;;;15.50;99.90;;;;;;4946205;28;20039;-88
2022/07/10 08:01:57;;;;;;;5.63;1.52;;;15.60;99.90;;;;;;4941743;28;20117;-86
2022/07/10 08:04:23;;;;;;;5.75;1.70;;;15.60;99.90;;;;;;4952664;28;20051;-87
2022/07/10 08:06:51;;;;;;;8.32;1.25;;;15.80;99.90;;;;;;4946059;28;20090;-86
2022/07/10 08:09:18;;;;;;;8.85;1.55;;;15.80;99.90;;;;;;4945448;28;20047;-86
2022/07/10 08:11:46;;;;;;;6.22;1.73;;;15.70;99.90;;;;;;4961704;28;20039;-87
2022/07/10 08:14:12;;;;;;;5.72;1.58;;;15.80;99.90;;;;;;4959581;28;20045;-87
2022/07/10 08:16:38;;;;;;;8.27;2.08;;;15.80;99.90;;;;;;4959662;28;20037;-86
2022/07/10 08:19:04;;;;;;;7.20;1.75;;;15.90;99.90;;;;;;4944180;28;20039;-87
2022/07/10 08:21:30;;;;;;;5.43;1.60;;;15.80;99.90;;;;;;4941075;28;20415;-87
2022/07/10 08:23:56;;;;;;;4.50;1.30;;;15.90;99.90;;;;;;4943909;28;20039;-87
2022/07/10 08:26:21;;;;;;;3.78;1.13;;;15.90;99.90;;;;;;4947454;28;20510;-87
2022/07/10 08:28:47;;;;;;;4.15;1.35;;;16.00;99.90;;;;;;4947440;28;20042;-87
2022/07/10 08:31:13;;;;;;;7.28;1.50;;;16.00;99.90;;;;;;4946233;28;20554;-87
2022/07/10 08:33:39;;;;;;;6.40;1.60;;;16.10;99.90;;;;;;4944159;28;20474;-87
2022/07/10 08:36:05;;;;;;;5.28;1.58;;;16.10;99.90;;;;;;4943317;28;20223;-86
2022/07/10 08:38:31;;;;;;;7.03;1.70;;;16.00;99.90;;;;;;4944449;28;20499;-86
2022/07/10 08:40:57;;;;;;;3.65;1.55;;;15.90;99.90;;;;;;4943405;28;20046;-85
2022/07/10 08:43:26;;;;;;;4.85;1.80;;;15.90;99.90;;;;;;4941903;28;20129;-87
2022/07/10 08:45:53;;;;;;;8.45;1.40;;;15.80;99.90;;;;;;4945150;28;20085;-86
2022/07/10 08:48:23;;;;;;;7.25;1.35;;;16.00;99.90;;;;;;4944275;28;20081;-88
2022/07/10 08:50:52;;;;;;;6.00;1.15;;;16.00;99.90;;;;;;4942431;28;20067;-86
2022/07/10 08:53:26;;;;;;;2.20;1.00;;;16.10;99.90;;;;;;4976797;28;20112;-87
2022/07/10 08:55:52;;;;;;;3.43;0.77;;;16.10;99.90;;;;;;4962476;28;20124;-85
2022/07/10 08:58:19;;;;;;;4.10;0.95;;;16.10;99.90;;;;;;4946809;28;20030;-87
2022/07/10 09:00:45;;;;;;;3.58;0.88;;;16.10;99.90;;;;;;4947466;28;20414;-86
2022/07/10 09:03:11;;;;;;;4.40;0.85;;;16.00;99.90;;;;;;4952294;28;20058;-87
2022/07/10 09:05:40;;;;;;;1.65;0.60;;;16.10;99.90;;;;;;4943483;28;20059;-86
2022/07/10 09:08:27;;;;;;;3.63;0.80;;;16.10;99.90;;;;;;4943311;28;20764;-88
2022/07/10 09:11:12;;;;;;;3.20;1.00;;;16.40;99.90;;;;;;4958495;28;20035;-87
2022/07/10 09:13:55;;;;;;;;;;;16.60;99.90;;;;;;4943584;28;20286;-86
2022/07/10 09:16:32;;;;;;;3.15;1.05;;;16.60;99.90;;;;;;4944282;28;20152;-87
2022/07/10 09:19:21;;;;;;;4.57;1.60;;;16.90;99.90;;;;;;4942349;28;20818;-87
2022/07/10 09:21:52;;;;;;;2.65;1.30;;;16.90;99.90;;;;;;4947612;28;20074;-87
2022/07/10 09:24:19;;;;;;;3.95;1.20;;;17.20;99.90;;;;;;4946775;28;20043;-88
2022/07/10 09:27:00;;;;;;;3.58;1.52;;;16.80;80.40;;;;;;4942774;28;20034;-87
2022/07/10 09:29:26;;;;;;;3.10;1.20;;;16.70;99.90;;;;;;4955254;28;20061;-87
2022/07/10 09:31:54;;;;;;;3.03;1.30;;;16.50;99.90;;;;;;4954328;28;20456;-87
2022/07/10 09:34:39;;;;;;;5.75;1.30;;;16.10;99.90;;;;;;4941748;28;20031;-87
2022/07/10 09:37:23;;;;;;;4.70;1.40;;;16.10;99.90;;;;;;4936662;28;20107;-87
2022/07/10 09:40:06;;;;;;;3.28;1.45;;;15.90;99.90;;;;;;4957207;28;20097;-86
2022/07/10 09:42:36;;;;;;;3.72;1.45;;;15.70;1.00;;;;;;4961027;28;20074;-86
2022/07/10 09:45:11;;;;;;;3.45;1.48;;;15.70;1.00;;;;;;4937865;29;20039;-85
2022/07/10 09:48:00;;;;;;;3.63;1.35;;;15.60;1.00;;;;;;4958074;28;20138;-85
2022/07/10 09:50:36;;;;;;;4.90;1.52;;;15.60;8.00;;;;;;4942293;28;20612;-84
2022/07/10 09:53:07;;;;;;;2.15;1.40;;;15.70;99.90;;;;;;4944503;28;20133;-85
2022/07/10 09:55:34;;;;;;;3.42;1.55;;;15.70;99.90;;;;;;4943397;28;20474;-85
2022/07/10 09:58:02;;;;;;;5.57;1.63;;;15.50;99.90;;;;;;4942287;28;20023;-84
2022/07/10 10:00:36;;;;;;;3.80;1.55;;;15.60;99.90;;;;;;4942636;28;20463;-85
2022/07/10 10:03:07;;;;;;;4.90;2.00;;;15.40;99.90;;;;;;4959077;28;20050;-84
2022/07/10 10:05:36;;;;;;;6.72;2.00;;;15.60;99.90;;;;;;4955998;28;20224;-85
2022/07/10 10:08:17;;;;;;;3.67;1.98;;;15.60;99.90;;;;;;4959476;28;20042;-85
2022/07/10 10:10:45;;;;;;;5.10;2.47;;;16.00;99.90;;;;;;4942823;28;20526;-84
2022/07/10 10:13:15;;;;;;;6.43;2.28;;;15.90;99.90;;;;;;4941594;28;20039;-84
2022/07/10 10:15:43;;;;;;;4.47;2.03;;;15.80;99.90;;;;;;4959425;28;20039;-84
2022/07/10 10:18:13;;;;;;;4.82;2.13;;;15.90;99.90;;;;;;4960671;28;20082;-87
2022/07/10 10:20:44;;;;;;;3.80;1.70;;;15.90;99.90;;;;;;4939096;28;20407;-85
2022/07/10 10:23:13;;;;;;;5.70;1.90;;;15.70;99.90;;;;;;4944045;28;20505;-86
2022/07/10 10:25:40;;;;;;;6.50;2.17;;;15.90;99.90;;;;;;4943164;28;20039;-85
2022/07/10 10:28:08;;;;;;;4.97;2.10;;;16.10;99.90;;;;;;4942688;28;20314;-86
2022/07/10 10:30:42;;;;;;;5.45;2.33;;;16.30;99.90;;;;;;4959800;28;20031;-86
2022/07/10 10:33:42;;;;;;;10.70;2.80;;;16.60;99.90;;;;;;4941343;28;20050;-86
2022/07/10 10:36:09;;;;;;;6.93;2.47;;;16.50;99.90;;;;;;4940263;28;20095;-86
2022/07/10 10:38:51;;;;;;;7.15;2.28;;;16.20;1.00;;;;;;4941694;28;20108;-84
2022/07/10 10:41:27;;;;;;;6.43;2.33;;;16.30;12.70;;;;;;4952858;28;20046;-85
2022/07/10 10:46:35;;;;;;;5.45;2.35;;;16.80;1.00;;;;;;4958672;28;20050;-85
2022/07/10 10:49:08;;;;;;;3.30;1.95;;;17.20;1.00;;;;;;4975316;28;20043;-85
2022/07/10 10:52:06;;;;;;;7.22;2.33;;;17.20;99.90;;;;;;4937011;28;20054;-86
2022/07/10 10:55:00;;;;;;;6.32;2.20;;;17.30;99.90;;;;;;4950613;28;20055;-86
2022/07/10 10:57:32;;;;;;;6.40;2.50;;;17.30;99.90;;;;;;4956628;28;20035;-86
2022/07/10 10:59:59;;;;;;;5.78;2.20;;;17.40;99.90;;;;;;4958811;28;20566;-86
2022/07/10 11:02:30;;;;;;;8.52;2.35;;;17.60;99.90;;;;;;4942774;28;20141;-86
2022/07/10 11:05:14;;;;;;;7.15;1.98;;;17.50;99.90;;;;;;4943550;28;20121;-85
2022/07/10 11:07:55;;;;;;;4.70;2.10;;;17.30;99.90;;;;;;4955169;28;20450;-86
2022/07/10 11:10:35;;;;;;;4.90;2.28;;;17.20;99.90;;;;;;4958498;28;20500;-86
2022/07/10 11:13:06;;;;;;;5.72;2.42;;;17.10;99.90;;;;;;4957874;28;20106;-86
2022/07/10 11:15:33;;;;;;;7.57;2.28;;;17.10;99.90;;;;;;4938959;28;20035;-86
2022/07/10 11:18:02;;;;;;;8.75;2.50;;;17.10;99.90;;;;;;4952622;28;20118;-86
2022/07/10 11:20:41;;;;;;;6.38;2.25;;;17.30;99.90;;;;;;4951343;28;20074;-87
2022/07/10 11:23:35;;;;;;;5.47;2.03;;;17.70;99.90;;;;;;4951863;28;20553;-86
2022/07/10 11:26:11;;;;;;;4.50;2.17;;;17.80;14.20;;;;;;4955755;28;20156;-87
2022/07/10 11:28:43;;;;;;;5.32;1.77;;;18.40;99.90;;;;;;4932765;29;20047;-86
2022/07/10 11:31:09;;;;;;;3.20;1.50;;;18.20;1.00;;;;;;4946648;28;20047;-87
2022/07/10 11:33:44;;;;;;;8.00;1.95;;;18.20;1.00;;;;;;4941527;28;20038;-87
2022/07/10 11:36:17;;;;;;;6.32;1.80;;;18.20;1.00;;;;;;4940600;28;20038;-87
2022/07/10 11:38:44;;;;;;;4.45;1.88;;;18.00;3.20;;;;;;4941574;28;20495;-86
2022/07/10 11:41:18;;;;;;;4.53;1.65;;;17.30;1.00;;;;;;4941709;28;20157;-85
2022/07/10 11:44:12;;;;;;;4.72;1.88;;;16.80;99.90;;;;;;4955925;28;20402;-86
2022/07/10 11:46:38;;;;;;;5.60;1.90;;;16.80;99.90;;;;;;4956043;28;20507;-86
2022/07/10 11:49:08;;;;;;;3.35;2.13;;;17.00;99.90;;;;;;4940349;28;20149;-87
2022/07/10 11:51:39;;;;;;;4.88;2.00;;;17.40;99.90;;;;;;4954673;28;20593;-87
2022/07/10 11:54:15;;;;;;;6.82;1.80;;;17.50;99.90;;;;;;4941258;28;20449;-86
2022/07/10 11:56:46;;;;;;;4.70;2.38;;;17.40;99.90;;;;;;4941312;28;20093;-87
2022/07/10 11:59:13;;;;;;;5.05;1.73;;;17.30;99.90;;;;;;4951537;28;20042;-86
2022/07/10 12:01:51;;;;;;;6.50;1.92;;;17.20;99.90;;;;;;4941818;28;20133;-86
2022/07/10 12:04:24;;;;;;;7.65;1.90;;;16.80;99.90;;;;;;4942967;28;20051;-86
2022/07/10 12:06:51;;;;;;;7.75;2.00;;;16.70;99.90;;;;;;4942365;28;20486;-85
2022/07/10 12:09:18;;;;;;;6.22;2.20;;;16.50;99.90;;;;;;4942167;28;20039;-85
2022/07/10 12:11:57;;;;;;;5.80;2.17;;;16.60;1.00;;;;;;4943676;28;20101;-86
2022/07/10 12:14:23;;;;;;;4.18;2.13;;;16.60;20.70;;;;;;4956068;28;20146;-86
2022/07/10 12:16:53;;;;;;;5.72;2.20;;;16.60;1.00;;;;;;4943020;28;20161;-86
2022/07/10 12:19:23;;;;;;;7.35;2.28;;;16.50;1.00;;;;;;4975267;28;20426;-86
2022/07/10 12:21:49;;;;;;;4.25;2.13;;;16.40;1.00;;;;;;4944491;28;20219;-85
2022/07/10 12:24:19;;;;;;;8.20;2.20;;;16.20;1.00;;;;;;4946198;28;20046;-86
2022/07/10 12:26:46;;;;;;;7.22;2.22;;;16.30;1.00;;;;;;4953276;28;20911;-86
2022/07/10 12:29:18;;;;;;;7.07;2.28;;;16.30;1.00;;;;;;4942585;28;20600;-86
2022/07/10 12:31:45;;;;;;;4.40;2.03;;;16.40;1.00;;;;;;4943193;28;20499;-86
2022/07/10 12:34:11;;;;;;;5.32;2.53;;;16.80;1.00;;;;;;4946733;28;20049;-86
2022/07/10 12:36:44;;;;;;;6.72;2.55;;;16.90;1.00;;;;;;4961583;28;20796;-86
2022/07/10 12:39:10;;;;;;;6.65;2.55;;;16.90;1.00;;;;;;4945499;28;20430;-86
2022/07/10 12:41:54;;;;;;;5.28;2.40;;;17.30;1.00;;;;;;4945939;28;20042;-87
2022/07/10 12:44:40;;;;;;;6.82;2.58;;;17.20;99.90;;;;;;4938687;28;20529;-86
2022/07/10 12:47:10;;;;;;;;;;;17.50;99.90;;;;;;4956473;28;20050;-86
2022/07/10 12:50:01;;;;;;;4.57;2.42;;;17.20;99.90;;;;;;4944161;28;20337;-86
2022/07/10 12:52:35;;;;;;;7.35;2.30;;;17.10;99.90;;;;;;4945365;28;20130;-86
2022/07/10 12:55:13;;;;;;;5.97;2.20;;;17.00;99.90;;;;;;4961314;28;20035;-87
2022/07/10 12:57:52;;;;;;;6.72;2.95;;;16.90;99.90;;;;;;4956319;28;20066;-86
2022/07/10 13:00:30;;;;;;;6.45;2.22;;;16.60;1.00;;;;;;4958791;28;20408;-85
2022/07/10 13:03:08;;;;;;;6.18;2.00;;;16.50;1.00;;;;;;4939423;28;20078;-86
2022/07/10 13:05:42;;;;;;;5.47;2.55;;;16.40;1.00;;;;;;4941694;28;20081;-86
2022/07/10 13:08:13;;;;;;;8.20;2.50;;;16.40;1.00;;;;;;4941738;28;20438;-85
2022/07/10 13:10:40;;;;;;;6.45;2.65;;;16.20;99.90;;;;;;4945007;28;20071;-86